Time;durP1;ratioP1;P1;durP2;ratioP2;P2;SDS_P1;SDS_P2;PMS_P1;PMS_P2;Temp;Humidity;BMP_temperature;BMP_pressure;BME280_temperature;BME280_humidity;BME280_pressure;Samples;Min_cycle;Max_cycle;Signal;HPM_P1;HPM_P2
2022/02/24 00:03:39;;;;;;;13.75;4.75;;;;;;;;;;10420974;28;20025;-72
2022/02/24 00:08:40;;;;;;;10.88;4.75;;;;;;;;;;10419740;28;20029;-74
2022/02/24 00:13:40;;;;;;;8.93;5.32;;;;;;;;;;10403504;28;20082;-72
2022/02/24 00:18:40;;;;;;;11.60;4.80;;;;;;;;;;10404220;28;20033;-71
2022/02/24 00:23:40;;;;;;;13.90;5.57;;;;;;;;;;10403613;28;20108;-72
2022/02/24 00:28:41;;;;;;;9.33;5.53;;;;;;;;;;10403940;28;20034;-73
2022/02/24 00:33:41;;;;;;;11.93;4.43;;;;;;;;;;10419904;28;20049;-72
2022/02/24 00:38:41;;;;;;;9.13;5.20;;;;;;;;;;10417320;28;20288;-72
2022/02/24 00:43:42;;;;;;;27.50;5.70;;;;;;;;;;10427436;28;20047;-73
2022/02/24 00:48:42;;;;;;;6.80;5.00;;;;;;;;;;10444011;28;20029;-72
2022/02/24 00:53:42;;;;;;;13.23;4.55;;;;;;;;;;10444784;28;20033;-72
2022/02/24 00:58:43;;;;;;;13.43;4.57;;;;;;;;;;10445589;28;20025;-71
2022/02/24 01:03:43;;;;;;;11.30;4.10;;;;;;;;;;10449108;28;20401;-76
2022/02/24 01:08:44;;;;;;;19.98;4.72;;;;;;;;;;10445145;28;20481;-71
2022/02/24 01:13:44;;;;;;;21.27;5.10;;;;;;;;;;10444422;28;20032;-77
2022/02/24 01:18:44;;;;;;;10.68;5.15;;;;;;;;;;10448784;28;20549;-74
2022/02/24 01:23:45;;;;;;;10.50;4.27;;;;;;;;;;10451583;28;20021;-74
2022/02/24 01:28:45;;;;;;;9.88;5.07;;;;;;;;;;10451082;28;20029;-72
2022/02/24 01:33:45;;;;;;;13.00;5.03;;;;;;;;;;10450440;28;20033;-74
2022/02/24 01:38:46;;;;;;;11.32;4.28;;;;;;;;;;10450360;28;20290;-73
2022/02/24 01:43:46;;;;;;;8.13;4.57;;;;;;;;;;10451498;28;20708;-73
2022/02/24 01:48:47;;;;;;;21.25;4.72;;;;;;;;;;10450200;28;20036;-72
2022/02/24 01:53:47;;;;;;;8.50;4.73;;;;;;;;;;10449396;28;20017;-72
2022/02/24 01:58:48;;;;;;;7.03;3.63;;;;;;;;;;10451113;28;20817;-78
2022/02/24 02:03:49;;;;;;;12.55;4.32;;;;;;;;;;10449711;28;20610;-73
2022/02/24 02:08:50;;;;;;;8.13;4.75;;;;;;;;;;10450315;28;20025;-73
2022/02/24 02:13:50;;;;;;;7.30;4.07;;;;;;;;;;10449990;28;20029;-72
2022/02/24 02:18:50;;;;;;;7.68;4.95;;;;;;;;;;10448943;28;20021;-73
2022/02/24 02:23:50;;;;;;;10.00;4.15;;;;;;;;;;10448524;28;20017;-75
2022/02/24 02:28:51;;;;;;;13.20;4.30;;;;;;;;;;10447464;28;20013;-72
2022/02/24 02:33:59;;;;;;;12.55;4.47;;;;;;;;;;10448299;28;20120;-72
2022/02/24 02:39:00;;;;;;;5.82;4.05;;;;;;;;;;10447509;28;20037;-77
2022/02/24 02:44:01;;;;;;;8.75;4.78;;;;;;;;;;10449151;28;20055;-71
2022/02/24 02:49:01;;;;;;;9.35;5.53;;;;;;;;;;10447454;28;20049;-71
2022/02/24 02:54:01;;;;;;;14.43;4.93;;;;;;;;;;10448608;28;20035;-72
2022/02/24 02:59:02;;;;;;;9.30;3.95;;;;;;;;;;10446708;28;20272;-74
2022/02/24 03:04:02;;;;;;;12.17;4.87;;;;;;;;;;10447664;28;20025;-73
2022/02/24 03:09:02;;;;;;;12.10;4.83;;;;;;;;;;10448218;28;20268;-76
2022/02/24 03:14:03;;;;;;;11.87;4.83;;;;;;;;;;10446864;28;20024;-72
2022/02/24 03:19:04;;;;;;;10.10;4.00;;;;;;;;;;10447290;28;20094;-72
2022/02/24 03:24:05;;;;;;;6.25;4.28;;;;;;;;;;10447686;28;20275;-71
2022/02/24 03:29:05;;;;;;;5.20;4.00;;;;;;;;;;10429783;28;20039;-72
2022/02/24 03:34:06;;;;;;;12.33;3.80;;;;;;;;;;10439790;28;20135;-72
2022/02/24 03:39:06;;;;;;;10.32;4.45;;;;;;;;;;10431648;28;20453;-73
2022/02/24 03:44:06;;;;;;;16.63;4.03;;;;;;;;;;10461765;28;20106;-75
2022/02/24 03:49:07;;;;;;;6.35;4.20;;;;;;;;;;10459494;28;20075;-73
2022/02/24 03:54:07;;;;;;;11.73;4.60;;;;;;;;;;10459006;28;20017;-73
2022/02/24 03:59:07;;;;;;;6.77;3.80;;;;;;;;;;10446654;28;20284;-73
2022/02/24 04:04:08;;;;;;;12.13;4.80;;;;;;;;;;10445618;28;20259;-73
2022/02/24 04:09:08;;;;;;;6.23;3.80;;;;;;;;;;10443464;28;20021;-74
2022/02/24 04:14:08;;;;;;;11.10;3.83;;;;;;;;;;10406041;28;20556;-73
2022/02/24 04:19:09;;;;;;;11.93;3.63;;;;;;;;;;10421781;28;20018;-72
2022/02/24 04:24:09;;;;;;;9.53;4.17;;;;;;;;;;10406247;28;20060;-71
2022/02/24 04:29:13;;;;;;;7.55;3.88;;;;;;;;;;10405056;28;20025;-72
2022/02/24 04:34:13;;;;;;;5.45;3.90;;;;;;;;;;10405230;28;20076;-72
2022/02/24 04:39:13;;;;;;;5.60;3.65;;;;;;;;;;10403749;28;20124;-71
2022/02/24 04:44:13;;;;;;;6.60;3.95;;;;;;;;;;10425567;28;20021;-72
2022/02/24 04:49:14;;;;;;;5.10;3.22;;;;;;;;;;10423271;28;20026;-72
2022/02/24 04:54:14;;;;;;;11.32;3.75;;;;;;;;;;10424856;28;20059;-73
2022/02/24 04:59:15;;;;;;;6.43;3.70;;;;;;;;;;10452745;28;20032;-71
2022/02/24 05:04:16;;;;;;;14.15;3.95;;;;;;;;;;10429705;28;20705;-72
2022/02/24 05:09:16;;;;;;;13.50;4.28;;;;;;;;;;10410379;28;20047;-73
2022/02/24 05:14:17;;;;;;;3.03;2.72;;;;;;;;;;10428496;28;20024;-77
2022/02/24 05:19:17;;;;;;;6.07;3.60;;;;;;;;;;10447101;28;20024;-74
2022/02/24 05:24:17;;;;;;;6.90;4.00;;;;;;;;;;10427476;28;20040;-80
2022/02/24 05:29:18;;;;;;;9.15;4.65;;;;;;;;;;10410085;28;20091;-78
2022/02/24 05:34:18;;;;;;;10.10;4.93;;;;;;;;;;10441790;28;20044;-76
2022/02/24 05:39:18;;;;;;;6.97;3.97;;;;;;;;;;10450106;28;20029;-79
2022/02/24 05:44:19;;;;;;;5.88;2.55;;;;;;;;;;10450021;28;20112;-74
2022/02/24 05:49:19;;;;;;;7.82;2.80;;;;;;;;;;10449587;28;20013;-75
2022/02/24 05:54:19;;;;;;;5.07;4.00;;;;;;;;;;10449893;28;20123;-79
2022/02/24 05:59:19;;;;;;;10.93;4.78;;;;;;;;;;10447452;28;20282;-80
2022/02/24 06:04:20;;;;;;;10.52;4.82;;;;;;;;;;10448926;28;20507;-75
2022/02/24 06:09:20;;;;;;;11.85;4.13;;;;;;;;;;10450291;28;20155;-76
2022/02/24 06:14:20;;;;;;;6.28;4.10;;;;;;;;;;10448646;28;20025;-76
2022/02/24 06:19:21;;;;;;;9.88;4.88;;;;;;;;;;10448221;28;20029;-72
2022/02/24 06:24:21;;;;;;;10.80;5.53;;;;;;;;;;10408581;28;20021;-76
2022/02/24 06:29:21;;;;;;;13.13;4.38;;;;;;;;;;10407175;28;20044;-73
2022/02/24 06:34:22;;;;;;;5.13;2.90;;;;;;;;;;10406802;28;20041;-74
2022/02/24 06:39:22;;;;;;;15.80;5.30;;;;;;;;;;10407376;28;20493;-77
2022/02/24 06:44:22;;;;;;;9.68;3.83;;;;;;;;;;10407267;28;20112;-73
2022/02/24 06:49:23;;;;;;;15.77;4.50;;;;;;;;;;10407061;28;20022;-73
2022/02/24 06:54:24;;;;;;;10.63;3.73;;;;;;;;;;10405803;28;20032;-76
2022/02/24 06:59:24;;;;;;;9.07;3.42;;;;;;;;;;10405041;28;20100;-76
2022/02/24 07:04:24;;;;;;;8.23;3.95;;;;;;;;;;10405372;28;20031;-73
2022/02/24 07:09:26;;;;;;;8.82;3.85;;;;;;;;;;10406588;28;20033;-73
2022/02/24 07:14:26;;;;;;;9.25;3.42;;;;;;;;;;10421471;28;20550;-77
2022/02/24 07:19:26;;;;;;;3.97;2.75;;;;;;;;;;10404732;28;20112;-77
2022/02/24 07:24:26;;;;;;;6.80;2.93;;;;;;;;;;10404080;28;20412;-72
2022/02/24 07:29:27;;;;;;;15.93;3.60;;;;;;;;;;10387517;28;20031;-76
2022/02/24 07:34:27;;;;;;;12.13;4.40;;;;;;;;;;10420548;28;20045;-75
2022/02/24 07:39:27;;;;;;;10.07;3.50;;;;;;;;;;10404566;28;20034;-76
2022/02/24 07:44:28;;;;;;;8.07;3.58;;;;;;;;;;10404102;28;20476;-77
2022/02/24 07:49:28;;;;;;;13.18;3.03;;;;;;;;;;10419699;28;20128;-77
2022/02/24 07:54:29;;;;;;;5.70;3.65;;;;;;;;;;10420319;28;20416;-74
2022/02/24 07:59:29;;;;;;;12.25;5.82;;;;;;;;;;10405138;28;20028;-73
2022/02/24 08:04:29;;;;;;;3.93;3.20;;;;;;;;;;10404968;28;20017;-76
2022/02/24 08:09:31;;;;;;;8.45;3.50;;;;;;;;;;10403466;28;20774;-76
2022/02/24 08:14:31;;;;;;;9.73;3.42;;;;;;;;;;10405045;28;20454;-75
2022/02/24 08:19:32;;;;;;;8.63;3.17;;;;;;;;;;10420234;28;20025;-78
2022/02/24 08:24:35;;;;;;;10.02;3.25;;;;;;;;;;10403740;28;20046;-73
2022/02/24 08:29:35;;;;;;;7.35;3.20;;;;;;;;;;10408570;28;20436;-77
2022/02/24 08:34:35;;;;;;;8.38;3.13;;;;;;;;;;10410913;28;20042;-73
2022/02/24 08:39:36;;;;;;;4.05;2.65;;;;;;;;;;10427868;28;20053;-74
2022/02/24 08:44:36;;;;;;;6.93;2.83;;;;;;;;;;10410681;28;20026;-71
2022/02/24 08:49:37;;;;;;;6.97;2.60;;;;;;;;;;10410472;28;20025;-76
2022/02/24 08:54:37;;;;;;;3.78;2.00;;;;;;;;;;10410620;28;20083;-73
2022/02/24 08:59:38;;;;;;;4.63;2.25;;;;;;;;;;10410359;28;20544;-72
2022/02/24 09:04:38;;;;;;;8.40;3.25;;;;;;;;;;10409992;28;20033;-77
2022/02/24 09:09:39;;;;;;;4.72;2.63;;;;;;;;;;10411437;28;20033;-76
2022/02/24 09:14:39;;;;;;;10.30;2.63;;;;;;;;;;10410127;28;20033;-77
2022/02/24 09:19:45;;;;;;;2.00;1.38;;;;;;;;;;10409292;28;20057;-74
2022/02/24 09:24:45;;;;;;;1.73;1.10;;;;;;;;;;10410784;28;20025;-73
2022/02/24 09:29:46;;;;;;;3.42;1.33;;;;;;;;;;10409181;28;20033;-71
2022/02/24 09:34:46;;;;;;;4.40;1.77;;;;;;;;;;10408526;28;20053;-75
2022/02/24 09:39:46;;;;;;;11.17;4.43;;;;;;;;;;10409418;28;20036;-76
2022/02/24 09:44:47;;;;;;;5.20;2.83;;;;;;;;;;10410281;28;20029;-77
2022/02/24 09:49:48;;;;;;;4.47;1.20;;;;;;;;;;10409706;28;20041;-73
2022/02/24 09:54:48;;;;;;;7.75;1.80;;;;;;;;;;10409550;28;20086;-75
2022/02/24 09:59:48;;;;;;;1.55;0.93;;;;;;;;;;10419752;28;20104;-74
2022/02/24 10:05:05;;;;;;;2.08;1.13;;;;;;;;;;10449889;28;20113;-73
2022/02/24 10:10:24;;;;;;;2.35;1.30;;;;;;;;;;10454018;28;20024;-74
2022/02/24 10:15:24;;;;;;;3.65;1.50;;;;;;;;;;10441105;28;20587;-73
2022/02/24 10:20:34;;;;;;;4.03;2.17;;;;;;;;;;10447056;28;20036;-75
2022/02/24 10:25:38;;;;;;;3.78;1.77;;;;;;;;;;10447728;28;20033;-73
2022/02/24 10:30:49;;;;;;;3.67;1.80;;;;;;;;;;10439756;28;20781;-72
2022/02/24 10:35:49;;;;;;;7.95;1.98;;;;;;;;;;10447431;28;20052;-73
2022/02/24 10:40:56;;;;;;;15.73;3.30;;;;;;;;;;10446727;28;20136;-75
2022/02/24 10:45:56;;;;;;;5.40;2.35;;;;;;;;;;10421526;28;20116;-73
2022/02/24 10:50:58;;;;;;;3.80;1.98;;;;;;;;;;10434970;28;20024;-72
2022/02/24 10:56:00;;;;;;;4.00;2.33;;;;;;;;;;10411520;28;20034;-75
2022/02/24 11:01:06;;;;;;;6.22;2.95;;;;;;;;;;10432158;28;20039;-73
2022/02/24 11:06:07;;;;;;;2.75;2.35;;;;;;;;;;10406173;28;20036;-73
2022/02/24 11:11:08;;;;;;;5.40;2.60;;;;;;;;;;10417818;28;20041;-73
2022/02/24 11:16:08;;;;;;;4.22;2.70;;;;;;;;;;10406218;28;20098;-74
2022/02/24 11:21:12;;;;;;;6.03;2.67;;;;;;;;;;10420876;28;20725;-73
2022/02/24 11:26:21;;;;;;;5.68;2.50;;;;;;;;;;10404435;28;20025;-73
2022/02/24 11:31:26;;;;;;;2.72;2.28;;;;;;;;;;10441488;28;20436;-73
2022/02/24 11:36:37;;;;;;;4.13;1.23;;;;;;;;;;10462263;28;20639;-76
2022/02/24 11:41:57;;;;;;;2.03;1.25;;;;;;;;;;10428674;28;20075;-79
2022/02/24 11:46:58;;;;;;;3.00;1.30;;;;;;;;;;10444472;28;20508;-74
2022/02/24 11:52:17;;;;;;;3.22;1.70;;;;;;;;;;10446301;28;20024;-74
2022/02/24 11:57:27;;;;;;;4.30;1.90;;;;;;;;;;10462491;28;20118;-74
2022/02/24 12:02:54;;;;;;;4.18;2.00;;;;;;;;;;10443563;28;20040;-73
2022/02/24 12:08:04;;;;;;;2.58;2.08;;;;;;;;;;10435664;28;20137;-72
2022/02/24 12:13:26;;;;;;;3.90;1.60;;;;;;;;;;10388487;28;20021;-73
2022/02/24 12:18:35;;;;;;;3.60;1.17;;;;;;;;;;10420861;28;20025;-73
2022/02/24 12:23:36;;;;;;;2.75;1.73;;;;;;;;;;10404837;28;20030;-73
2022/02/24 12:28:36;;;;;;;3.08;1.95;;;;;;;;;;10403183;28;20033;-74
2022/02/24 12:33:36;;;;;;;3.70;1.80;;;;;;;;;;10419352;28;20394;-73
2022/02/24 12:38:37;;;;;;;4.40;1.80;;;;;;;;;;10419541;28;20041;-72
2022/02/24 12:43:41;;;;;;;4.20;1.70;;;;;;;;;;10402861;28;20034;-80
2022/02/24 12:48:42;;;;;;;4.28;2.25;;;;;;;;;;10403374;28;20030;-73
2022/02/24 12:53:44;;;;;;;4.75;1.85;;;;;;;;;;10402514;28;20025;-74
2022/02/24 12:58:45;;;;;;;3.80;1.80;;;;;;;;;;10435055;28;20591;-76
2022/02/24 13:03:45;;;;;;;3.38;1.83;;;;;;;;;;10406284;28;20032;-77
2022/02/24 13:14:06;;;;;;;2.10;0.90;;;;;;;;;;10424964;28;20275;-75
2022/02/24 13:19:15;;;;;;;3.80;1.55;;;;;;;;;;10432808;28;20393;-80
2022/02/24 13:24:22;;;;;;;3.72;1.73;;;;;;;;;;10421593;28;20132;-71
2022/02/24 13:29:23;;;;;;;2.67;1.43;;;;;;;;;;10435736;28;20039;-76
2022/02/24 13:34:23;;;;;;;2.95;1.50;;;;;;;;;;10449768;28;20602;-73
2022/02/24 13:39:34;;;;;;;3.03;1.60;;;;;;;;;;10449654;28;20033;-73
2022/02/24 13:44:39;;;;;;;4.57;1.08;;;;;;;;;;10432919;28;20116;-73
2022/02/24 13:49:42;;;;;;;2.95;1.42;;;;;;;;;;10449719;28;20390;-72
2022/02/24 13:54:52;;;;;;;1.90;1.40;;;;;;;;;;10450938;28;20044;-71
2022/02/24 14:00:11;;;;;;;1.75;1.10;;;;;;;;;;10449129;28;20025;-73
2022/02/24 14:05:12;;;;;;;5.80;1.50;;;;;;;;;;10424416;28;20032;-72
2022/02/24 14:10:13;;;;;;;4.22;1.40;;;;;;;;;;10391330;28;20028;-72
2022/02/24 14:15:14;;;;;;;2.72;1.48;;;;;;;;;;10440102;28;20017;-72
2022/02/24 14:20:20;;;;;;;6.88;1.63;;;;;;;;;;10440675;28;20033;-73
2022/02/24 14:25:21;;;;;;;2.13;1.60;;;;;;;;;;10442297;28;20076;-73
2022/02/24 14:30:21;;;;;;;2.70;1.58;;;;;;;;;;10427328;28;20404;-74
2022/02/24 14:35:21;;;;;;;3.95;1.38;;;;;;;;;;10447234;28;20068;-73
2022/02/24 14:40:21;;;;;;;4.40;1.95;;;;;;;;;;10439863;28;20037;-72
2022/02/24 14:45:22;;;;;;;3.00;1.60;;;;;;;;;;10405992;28;20022;-76
2022/02/24 14:50:22;;;;;;;1.63;1.20;;;;;;;;;;10405694;28;20090;-73
2022/02/24 14:55:23;;;;;;;3.13;1.30;;;;;;;;;;10416190;28;20264;-74
2022/02/24 15:00:23;;;;;;;1.73;1.20;;;;;;;;;;10446630;28;20029;-73
2022/02/24 15:05:30;;;;;;;3.47;1.63;;;;;;;;;;10447864;28;20501;-73
2022/02/24 15:10:31;;;;;;;8.13;2.88;;;;;;;;;;10445522;28;20048;-73
2022/02/24 15:15:31;;;;;;;4.90;1.98;;;;;;;;;;10444057;28;20060;-74
2022/02/24 15:20:31;;;;;;;4.60;3.13;;;;;;;;;;10443983;28;20520;-74
2022/02/24 15:25:31;;;;;;;4.63;2.00;;;;;;;;;;10443168;28;20274;-76
2022/02/24 15:30:32;;;;;;;7.85;2.50;;;;;;;;;;10445811;28;20033;-71
2022/02/24 15:35:33;;;;;;;4.77;2.30;;;;;;;;;;10435816;28;20447;-76
2022/02/24 15:40:34;;;;;;;12.20;3.20;;;;;;;;;;10446008;28;20291;-74
2022/02/24 15:45:34;;;;;;;11.70;3.93;;;;;;;;;;10443541;28;20052;-72
2022/02/24 15:50:34;;;;;;;15.25;4.25;;;;;;;;;;10428028;28;20033;-73
2022/02/24 15:55:35;;;;;;;13.13;5.15;;;;;;;;;;10443399;28;20522;-74
2022/02/24 16:00:36;;;;;;;10.27;4.00;;;;;;;;;;10399817;28;20362;-72
2022/02/24 16:05:37;;;;;;;9.45;5.53;;;;;;;;;;10401929;28;20030;-80
2022/02/24 16:10:37;;;;;;;7.20;2.78;;;;;;;;;;10417597;28;20032;-73
2022/02/24 16:15:37;;;;;;;9.13;2.93;;;;;;;;;;10445318;28;20021;-77
2022/02/24 16:20:38;;;;;;;5.72;2.88;;;;;;;;;;10444013;28;20839;-72
2022/02/24 16:25:38;;;;;;;10.82;2.92;;;;;;;;;;10426474;28;20412;-74
2022/02/24 16:30:38;;;;;;;3.35;2.30;;;;;;;;;;10442894;28;20413;-73
2022/02/24 16:35:39;;;;;;;4.40;1.92;;;;;;;;;;10403001;28;20049;-73
2022/02/24 16:40:39;;;;;;;3.25;2.05;;;;;;;;;;10402003;28;20719;-75
2022/02/24 16:45:43;;;;;;;8.70;2.75;;;;;;;;;;10419213;28;20476;-72
2022/02/24 16:50:45;;;;;;;6.55;2.92;;;;;;;;;;10446832;28;20052;-73
2022/02/24 16:55:46;;;;;;;23.92;7.45;;;;;;;;;;10450911;28;20025;-74
2022/02/24 17:00:46;;;;;;;115.95;43.95;;;;;;;;;;10441879;28;20087;-71
2022/02/24 17:05:46;;;;;;;54.23;22.10;;;;;;;;;;10441791;28;20442;-72
2022/02/24 17:10:47;;;;;;;37.45;14.45;;;;;;;;;;10447786;28;20028;-72
2022/02/24 17:15:48;;;;;;;29.13;14.32;;;;;;;;;;10452632;28;20039;-77
2022/02/24 17:20:48;;;;;;;22.05;8.65;;;;;;;;;;10447882;28;20029;-72
2022/02/24 17:25:48;;;;;;;21.13;8.27;;;;;;;;;;10442092;28;20462;-73
2022/02/24 17:30:49;;;;;;;16.60;8.20;;;;;;;;;;10415433;28;20276;-74
2022/02/24 17:35:49;;;;;;;11.20;6.28;;;;;;;;;;10408803;28;20045;-72
2022/02/24 17:40:49;;;;;;;11.43;4.75;;;;;;;;;;10425188;28;20049;-73
2022/02/24 17:45:50;;;;;;;18.35;6.68;;;;;;;;;;10419667;28;20036;-73
2022/02/24 17:50:50;;;;;;;15.07;6.93;;;;;;;;;;10391969;28;20026;-73
2022/02/24 17:55:51;;;;;;;18.08;8.18;;;;;;;;;;10421514;28;20043;-75
2022/02/24 18:00:51;;;;;;;25.42;8.75;;;;;;;;;;10447760;28;20029;-73
2022/02/24 18:05:51;;;;;;;23.63;8.88;;;;;;;;;;10449700;28;20481;-73
2022/02/24 18:10:52;;;;;;;19.30;8.90;;;;;;;;;;10448360;28;20055;-74
2022/02/24 18:15:52;;;;;;;24.30;9.77;;;;;;;;;;10448628;28;20817;-72
2022/02/24 18:20:52;;;;;;;27.23;11.77;;;;;;;;;;10446311;28;20298;-76
2022/02/24 18:25:53;;;;;;;17.63;10.27;;;;;;;;;;10443982;28;20017;-73
2022/02/24 18:30:53;;;;;;;17.55;9.40;;;;;;;;;;10440300;28;20067;-73
2022/02/24 18:35:54;;;;;;;19.23;8.23;;;;;;;;;;10436763;28;20052;-73
2022/02/24 18:40:54;;;;;;;20.40;8.70;;;;;;;;;;10441579;28;20048;-73
2022/02/24 18:45:55;;;;;;;17.92;8.75;;;;;;;;;;10428926;28;20032;-72
2022/02/24 18:50:56;;;;;;;19.90;8.90;;;;;;;;;;10441099;28;20037;-72
2022/02/24 18:55:56;;;;;;;16.58;7.07;;;;;;;;;;10418435;28;20408;-73
2022/02/24 19:00:57;;;;;;;16.33;6.50;;;;;;;;;;10435938;28;20077;-73
2022/02/24 19:05:57;;;;;;;19.30;8.50;;;;;;;;;;10412931;28;20029;-73
2022/02/24 19:10:57;;;;;;;20.63;8.10;;;;;;;;;;10446153;28;20036;-72
2022/02/24 19:15:57;;;;;;;13.43;6.73;;;;;;;;;;10446813;28;20112;-73
2022/02/24 19:20:58;;;;;;;21.75;8.15;;;;;;;;;;10444814;28;20123;-75
2022/02/24 19:25:58;;;;;;;17.20;7.40;;;;;;;;;;10446227;28;20025;-72
2022/02/24 19:30:59;;;;;;;11.27;7.37;;;;;;;;;;10446291;28;20267;-74
2022/02/24 19:35:59;;;;;;;17.65;8.10;;;;;;;;;;10445093;28;20098;-76
2022/02/24 19:40:59;;;;;;;15.53;7.03;;;;;;;;;;10444630;28;20037;-72
2022/02/24 19:46:00;;;;;;;15.20;7.43;;;;;;;;;;10433198;28;20636;-71
2022/02/24 19:51:00;;;;;;;12.27;7.32;;;;;;;;;;10415106;28;20025;-75
2022/02/24 19:56:01;;;;;;;13.17;6.87;;;;;;;;;;10445659;28;20075;-72
2022/02/24 20:01:02;;;;;;;15.95;6.70;;;;;;;;;;10428319;28;20025;-73
2022/02/24 20:06:02;;;;;;;12.13;6.68;;;;;;;;;;10442592;28;20023;-73
2022/02/24 20:11:02;;;;;;;20.45;10.32;;;;;;;;;;10440741;28;20024;-76
2022/02/24 20:16:06;;;;;;;12.93;5.60;;;;;;;;;;10421909;28;20029;-73
2022/02/24 20:21:06;;;;;;;12.15;6.57;;;;;;;;;;10399010;28;20081;-74
2022/02/24 20:26:08;;;;;;;14.70;5.80;;;;;;;;;;10408594;28;20362;-76
2022/02/24 20:31:09;;;;;;;11.88;6.65;;;;;;;;;;10409495;28;20488;-75
2022/02/24 20:36:09;;;;;;;12.15;5.03;;;;;;;;;;10449612;28;20135;-76
2022/02/24 20:41:09;;;;;;;8.10;4.83;;;;;;;;;;10428875;28;20592;-72
2022/02/24 20:46:10;;;;;;;11.20;5.90;;;;;;;;;;10411090;28;20100;-73
2022/02/24 20:51:10;;;;;;;8.30;4.20;;;;;;;;;;10426614;28;20264;-72
2022/02/24 20:56:10;;;;;;;11.25;5.80;;;;;;;;;;10422170;28;20021;-76
2022/02/24 21:01:11;;;;;;;11.73;5.70;;;;;;;;;;10411779;28;20021;-70
2022/02/24 21:06:11;;;;;;;11.73;6.18;;;;;;;;;;10421762;28;20075;-71
2022/02/24 21:11:11;;;;;;;10.55;4.30;;;;;;;;;;10430852;28;20053;-71
2022/02/24 21:16:12;;;;;;;5.72;3.45;;;;;;;;;;10409114;28;20021;-73
2022/02/24 21:21:12;;;;;;;9.10;4.40;;;;;;;;;;10410331;28;20031;-73
2022/02/24 21:26:16;;;;;;;10.90;4.95;;;;;;;;;;10408912;28;20029;-79
2022/02/24 21:31:16;;;;;;;6.70;4.88;;;;;;;;;;10408035;28;20493;-72
2022/02/24 21:36:17;;;;;;;14.40;6.00;;;;;;;;;;10407437;28;20184;-72
2022/02/24 21:41:17;;;;;;;10.35;5.78;;;;;;;;;;10407496;28;20195;-72
2022/02/24 21:46:18;;;;;;;13.18;6.30;;;;;;;;;;10405304;28;20021;-73
2022/02/24 21:51:18;;;;;;;12.48;5.47;;;;;;;;;;10405716;28;20342;-72
2022/02/24 21:56:18;;;;;;;11.73;5.87;;;;;;;;;;10405762;28;20412;-76
2022/02/24 22:01:20;;;;;;;11.80;6.22;;;;;;;;;;10405250;28;20029;-72
2022/02/24 22:06:20;;;;;;;9.93;5.18;;;;;;;;;;10405451;28;20020;-73
2022/02/24 22:11:20;;;;;;;11.93;6.03;;;;;;;;;;10436359;28;20407;-72
2022/02/24 22:16:21;;;;;;;11.88;7.25;;;;;;;;;;10446312;28;20028;-72
2022/02/24 22:21:21;;;;;;;8.90;6.15;;;;;;;;;;10462878;28;20144;-77
2022/02/24 22:26:21;;;;;;;13.55;5.53;;;;;;;;;;10443762;28;20021;-72
2022/02/24 22:31:21;;;;;;;10.55;6.47;;;;;;;;;;10446574;28;20412;-77
2022/02/24 22:36:22;;;;;;;18.83;9.02;;;;;;;;;;10388062;28;1688342;-75
2022/02/24 22:41:22;;;;;;;34.60;17.33;;;;;;;;;;10448165;28;20025;-78
2022/02/24 22:46:22;;;;;;;31.50;15.60;;;;;;;;;;10446709;28;20252;-74
2022/02/24 22:51:23;;;;;;;41.42;17.08;;;;;;;;;;10447052;28;20029;-73
2022/02/24 22:56:23;;;;;;;30.20;15.30;;;;;;;;;;10446558;28;20017;-72
2022/02/24 23:01:24;;;;;;;29.05;15.43;;;;;;;;;;10446775;28;20294;-76
2022/02/24 23:06:25;;;;;;;44.55;23.50;;;;;;;;;;10443692;28;20078;-72
2022/02/24 23:11:25;;;;;;;47.83;22.52;;;;;;;;;;10414691;28;20562;-73
2022/02/24 23:16:25;;;;;;;50.50;26.43;;;;;;;;;;10404856;28;20029;-72
2022/02/24 23:21:26;;;;;;;44.30;23.70;;;;;;;;;;10404030;28;20861;-73
2022/02/24 23:26:26;;;;;;;52.35;23.70;;;;;;;;;;10404748;28;20351;-74
2022/02/24 23:31:26;;;;;;;57.53;25.87;;;;;;;;;;10404400;28;20038;-72
2022/02/24 23:36:27;;;;;;;47.38;25.33;;;;;;;;;;10404896;28;20054;-71
2022/02/24 23:41:28;;;;;;;50.33;24.85;;;;;;;;;;10404014;28;20069;-71
2022/02/24 23:46:29;;;;;;;49.65;26.05;;;;;;;;;;10404127;28;20503;-71
2022/02/24 23:51:29;;;;;;;53.60;26.38;;;;;;;;;;10437937;28;20037;-71
2022/02/24 23:56:29;;;;;;;52.75;25.98;;;;;;;;;;10445544;28;20484;-73
